In Rescue
 
Open Full Screen Window  High Contrast Mode
Wind Gusting 00 knots
11
February 25, 2021 3:48 PM CST
Weather Information
Wind Direction
  200 °
Wind Speed
  11 kt (13 mph)
Wind Gust
  00 kt (0 mph)
Altimeter
30.14 in
Visibility
10 SM
Temperature
02° C
36° F
Dewpoint
-05° C
23° F
Humidity
60%
1hr Rain Fall
00.00 in.
24hr Rain Fall
00.00 in.
Sky Condition
Clear
VFR

METAR KD39 252148Z AUTO 20011KT 10SM CLR 02/M05 A3014 RMK AO2 T00201046

FAA Disclaimer: The data displayed is for advisory purposes only and is not to be used for flight planning or operations.